Potengi, Brazil
Current Conditions -  °F | °C
As of 1:00 PM on Friday 24 Oct 2014 (Local Time) from SBJU Reporting Station
Few Clouds Few Clouds  
Wind Chill: 95°   Ceiling: Unl
Heat Index: 95°   Visibility: 6mi
Dew Point: 61°   Wind: 7mph
Humidity: 32%   Direction: 140°SE
Pressure: 29.94"   Gusts: NA
Location:  7.09°S, 40.03°W
Report Text: SBJU 241600Z 14006KT 9999 FEW022 35/16 Q1014
Loading
Personal Weather Stations






























Interactive Weather Map
Tropical Storm Tracking
New forecast layout! Learn more

10-Day Weather Forecast

Advertisements
Track Severe Weather on mobile